sensor_id;sensor_type;location;lat;lon;timestamp;temperature;humidity
55203;DHT22;41077;52.956;6.796;2022-08-19T00:00:15;16.10;99.90
55203;DHT22;41077;52.956;6.796;2022-08-19T00:02:42;16.10;99.90
55203;DHT22;41077;52.956;6.796;2022-08-19T00:05:10;16.10;99.90
55203;DHT22;41077;52.956;6.796;2022-08-19T00:07:36;16.10;99.90
55203;DHT22;41077;52.956;6.796;2022-08-19T00:10:04;16.00;99.90
55203;DHT22;41077;52.956;6.796;2022-08-19T00:12:30;16.00;99.90
55203;DHT22;41077;52.956;6.796;2022-08-19T00:14:56;16.00;99.90
55203;DHT22;41077;52.956;6.796;2022-08-19T00:17:22;16.00;99.90
55203;DHT22;41077;52.956;6.796;2022-08-19T00:19:47;16.00;99.90
55203;DHT22;41077;52.956;6.796;2022-08-19T00:22:13;16.00;99.90
55203;DHT22;41077;52.956;6.796;2022-08-19T00:24:40;16.00;99.90
55203;DHT22;41077;52.956;6.796;2022-08-19T00:27:06;16.00;99.90
55203;DHT22;41077;52.956;6.796;2022-08-19T00:29:32;16.00;99.90
55203;DHT22;41077;52.956;6.796;2022-08-19T00:31:58;16.00;99.90
55203;DHT22;41077;52.956;6.796;2022-08-19T00:34:25;15.90;99.90
55203;DHT22;41077;52.956;6.796;2022-08-19T00:36:55;15.90;99.90
55203;DHT22;41077;52.956;6.796;2022-08-19T00:39:21;15.90;99.90
55203;DHT22;41077;52.956;6.796;2022-08-19T00:41:48;15.90;99.90
55203;DHT22;41077;52.956;6.796;2022-08-19T00:46:44;15.90;99.90
55203;DHT22;41077;52.956;6.796;2022-08-19T00:49:20;15.90;99.90
55203;DHT22;41077;52.956;6.796;2022-08-19T00:51:51;15.80;99.90
55203;DHT22;41077;52.956;6.796;2022-08-19T00:54:18;15.90;99.90
55203;DHT22;41077;52.956;6.796;2022-08-19T00:56:44;15.80;99.90
55203;DHT22;41077;52.956;6.796;2022-08-19T00:59:11;15.80;99.90
55203;DHT22;41077;52.956;6.796;2022-08-19T01:01:38;15.80;99.90
55203;DHT22;41077;52.956;6.796;2022-08-19T01:04:04;15.80;99.90
55203;DHT22;41077;52.956;6.796;2022-08-19T01:06:30;15.80;99.90
55203;DHT22;41077;52.956;6.796;2022-08-19T01:08:59;15.80;99.90
55203;DHT22;41077;52.956;6.796;2022-08-19T01:11:26;15.80;99.90
55203;DHT22;41077;52.956;6.796;2022-08-19T01:13:53;15.70;99.90
55203;DHT22;41077;52.956;6.796;2022-08-19T01:16:22;15.70;99.90
55203;DHT22;41077;52.956;6.796;2022-08-19T01:18:48;15.70;99.90
55203;DHT22;41077;52.956;6.796;2022-08-19T01:21:33;15.70;99.90
55203;DHT22;41077;52.956;6.796;2022-08-19T01:23:59;15.60;99.90
55203;DHT22;41077;52.956;6.796;2022-08-19T01:26:26;15.60;99.90
55203;DHT22;41077;52.956;6.796;2022-08-19T01:28:54;15.50;99.90
55203;DHT22;41077;52.956;6.796;2022-08-19T01:31:24;15.50;99.90
55203;DHT22;41077;52.956;6.796;2022-08-19T01:33:52;15.50;99.90
55203;DHT22;41077;52.956;6.796;2022-08-19T01:36:27;15.40;99.90
55203;DHT22;41077;52.956;6.796;2022-08-19T01:38:53;15.40;99.90
55203;DHT22;41077;52.956;6.796;2022-08-19T01:41:19;15.40;99.90
55203;DHT22;41077;52.956;6.796;2022-08-19T01:43:46;15.40;99.90
55203;DHT22;41077;52.956;6.796;2022-08-19T01:46:11;15.30;99.90
55203;DHT22;41077;52.956;6.796;2022-08-19T01:48:40;15.30;99.90
55203;DHT22;41077;52.956;6.796;2022-08-19T01:51:07;15.20;99.90
55203;DHT22;41077;52.956;6.796;2022-08-19T01:53:34;15.20;99.90
55203;DHT22;41077;52.956;6.796;2022-08-19T01:56:00;15.20;99.90
55203;DHT22;41077;52.956;6.796;2022-08-19T01:58:31;15.20;99.90
55203;DHT22;41077;52.956;6.796;2022-08-19T02:00:59;15.20;99.90
55203;DHT22;41077;52.956;6.796;2022-08-19T02:03:25;15.20;99.90
55203;DHT22;41077;52.956;6.796;2022-08-19T02:05:56;15.10;99.90
55203;DHT22;41077;52.956;6.796;2022-08-19T02:08:22;15.20;99.90
55203;DHT22;41077;52.956;6.796;2022-08-19T02:10:47;15.10;99.90
55203;DHT22;41077;52.956;6.796;2022-08-19T02:13:16;15.10;99.90
55203;DHT22;41077;52.956;6.796;2022-08-19T02:15:42;15.20;99.90
55203;DHT22;41077;52.956;6.796;2022-08-19T02:18:08;15.20;99.90
55203;DHT22;41077;52.956;6.796;2022-08-19T02:20:34;15.20;99.90
55203;DHT22;41077;52.956;6.796;2022-08-19T02:23:01;15.20;99.90
55203;DHT22;41077;52.956;6.796;2022-08-19T02:25:27;15.10;99.90
55203;DHT22;41077;52.956;6.796;2022-08-19T02:27:53;15.10;99.90
55203;DHT22;41077;52.956;6.796;2022-08-19T02:30:19;15.10;99.90
55203;DHT22;41077;52.956;6.796;2022-08-19T02:32:45;15.10;99.90
55203;DHT22;41077;52.956;6.796;2022-08-19T02:35:13;15.10;99.90
55203;DHT22;41077;52.956;6.796;2022-08-19T02:37:40;15.00;99.90
55203;DHT22;41077;52.956;6.796;2022-08-19T02:40:24;15.00;99.90
55203;DHT22;41077;52.956;6.796;2022-08-19T02:42:51;15.00;99.90
55203;DHT22;41077;52.956;6.796;2022-08-19T02:45:16;15.00;99.90
55203;DHT22;41077;52.956;6.796;2022-08-19T02:47:42;15.00;99.90
55203;DHT22;41077;52.956;6.796;2022-08-19T02:50:08;15.00;99.90
55203;DHT22;41077;52.956;6.796;2022-08-19T02:52:35;15.00;99.90
55203;DHT22;41077;52.956;6.796;2022-08-19T02:55:01;15.00;99.90
55203;DHT22;41077;52.956;6.796;2022-08-19T02:57:27;15.00;99.90
55203;DHT22;41077;52.956;6.796;2022-08-19T02:59:53;15.00;99.90
55203;DHT22;41077;52.956;6.796;2022-08-19T03:02:19;15.00;99.90
55203;DHT22;41077;52.956;6.796;2022-08-19T03:04:45;15.00;99.90
55203;DHT22;41077;52.956;6.796;2022-08-19T03:07:14;15.00;99.90
55203;DHT22;41077;52.956;6.796;2022-08-19T03:09:40;15.00;99.90
55203;DHT22;41077;52.956;6.796;2022-08-19T03:12:07;15.00;99.90
55203;DHT22;41077;52.956;6.796;2022-08-19T03:14:33;15.00;99.90
55203;DHT22;41077;52.956;6.796;2022-08-19T03:16:59;15.00;99.90
55203;DHT22;41077;52.956;6.796;2022-08-19T03:19:26;15.00;99.90
55203;DHT22;41077;52.956;6.796;2022-08-19T03:21:52;14.90;99.90
55203;DHT22;41077;52.956;6.796;2022-08-19T03:24:19;14.90;99.90
55203;DHT22;41077;52.956;6.796;2022-08-19T03:26:51;14.90;99.90
55203;DHT22;41077;52.956;6.796;2022-08-19T03:29:18;14.90;99.90
55203;DHT22;41077;52.956;6.796;2022-08-19T03:31:45;14.80;99.90
55203;DHT22;41077;52.956;6.796;2022-08-19T03:34:16;14.90;99.90
55203;DHT22;41077;52.956;6.796;2022-08-19T03:36:43;14.80;99.90
55203;DHT22;41077;52.956;6.796;2022-08-19T03:39:10;14.80;99.90
55203;DHT22;41077;52.956;6.796;2022-08-19T03:41:38;14.70;99.90
55203;DHT22;41077;52.956;6.796;2022-08-19T03:44:04;14.70;99.90
55203;DHT22;41077;52.956;6.796;2022-08-19T03:46:32;14.70;99.90
55203;DHT22;41077;52.956;6.796;2022-08-19T03:49:00;14.70;99.90
55203;DHT22;41077;52.956;6.796;2022-08-19T03:51:33;14.70;99.90
55203;DHT22;41077;52.956;6.796;2022-08-19T03:54:02;14.70;99.90
55203;DHT22;41077;52.956;6.796;2022-08-19T03:56:28;14.70;99.90
55203;DHT22;41077;52.956;6.796;2022-08-19T03:58:55;14.70;99.90
55203;DHT22;41077;52.956;6.796;2022-08-19T04:01:23;14.70;99.90
55203;DHT22;41077;52.956;6.796;2022-08-19T04:03:49;14.70;99.90
55203;DHT22;41077;52.956;6.796;2022-08-19T04:06:30;14.70;99.90
55203;DHT22;41077;52.956;6.796;2022-08-19T04:08:58;14.70;99.90
55203;DHT22;41077;52.956;6.796;2022-08-19T04:11:27;14.60;99.90
55203;DHT22;41077;52.956;6.796;2022-08-19T04:13:54;14.60;99.90
55203;DHT22;41077;52.956;6.796;2022-08-19T04:16:22;14.70;99.90
55203;DHT22;41077;52.956;6.796;2022-08-19T04:18:49;14.70;99.90
55203;DHT22;41077;52.956;6.796;2022-08-19T04:21:21;14.60;99.90
55203;DHT22;41077;52.956;6.796;2022-08-19T04:23:47;14.60;99.90
55203;DHT22;41077;52.956;6.796;2022-08-19T04:26:15;14.60;99.90
55203;DHT22;41077;52.956;6.796;2022-08-19T04:28:42;14.60;99.90
55203;DHT22;41077;52.956;6.796;2022-08-19T04:31:14;14.60;99.90
55203;DHT22;41077;52.956;6.796;2022-08-19T04:33:40;14.60;99.90
55203;DHT22;41077;52.956;6.796;2022-08-19T04:36:06;14.60;99.90
55203;DHT22;41077;52.956;6.796;2022-08-19T04:38:33;14.60;99.90
55203;DHT22;41077;52.956;6.796;2022-08-19T04:40:58;14.60;99.90
55203;DHT22;41077;52.956;6.796;2022-08-19T04:43:44;14.60;99.90
55203;DHT22;41077;52.956;6.796;2022-08-19T04:46:14;14.60;99.90
55203;DHT22;41077;52.956;6.796;2022-08-19T04:48:40;14.70;99.90
55203;DHT22;41077;52.956;6.796;2022-08-19T04:51:11;14.60;99.90
55203;DHT22;41077;52.956;6.796;2022-08-19T04:53:40;14.60;99.90
55203;DHT22;41077;52.956;6.796;2022-08-19T04:56:09;14.50;99.90
55203;DHT22;41077;52.956;6.796;2022-08-19T04:58:36;14.50;99.90
55203;DHT22;41077;52.956;6.796;2022-08-19T05:01:02;14.50;99.90
55203;DHT22;41077;52.956;6.796;2022-08-19T05:03:28;14.50;99.90
55203;DHT22;41077;52.956;6.796;2022-08-19T05:05:58;14.50;99.90
55203;DHT22;41077;52.956;6.796;2022-08-19T05:08:24;14.50;99.90
55203;DHT22;41077;52.956;6.796;2022-08-19T05:10:51;14.50;99.90
55203;DHT22;41077;52.956;6.796;2022-08-19T05:13:18;14.60;99.90
55203;DHT22;41077;52.956;6.796;2022-08-19T05:15:57;14.60;99.90
55203;DHT22;41077;52.956;6.796;2022-08-19T05:18:23;14.60;99.90
55203;DHT22;41077;52.956;6.796;2022-08-19T05:21:10;14.60;99.90
55203;DHT22;41077;52.956;6.796;2022-08-19T05:23:54;14.60;99.90
55203;DHT22;41077;52.956;6.796;2022-08-19T05:26:20;14.60;99.90
55203;DHT22;41077;52.956;6.796;2022-08-19T05:28:45;14.70;99.90
55203;DHT22;41077;52.956;6.796;2022-08-19T05:31:11;14.70;99.90
55203;DHT22;41077;52.956;6.796;2022-08-19T05:33:38;14.70;99.90
55203;DHT22;41077;52.956;6.796;2022-08-19T05:36:05;14.70;99.90
55203;DHT22;41077;52.956;6.796;2022-08-19T05:38:33;14.70;99.90
55203;DHT22;41077;52.956;6.796;2022-08-19T05:40:59;14.80;99.90
55203;DHT22;41077;52.956;6.796;2022-08-19T05:43:25;14.90;99.90
55203;DHT22;41077;52.956;6.796;2022-08-19T05:45:50;15.00;99.90
55203;DHT22;41077;52.956;6.796;2022-08-19T05:48:16;15.00;99.90
55203;DHT22;41077;52.956;6.796;2022-08-19T05:50:46;15.10;99.90
55203;DHT22;41077;52.956;6.796;2022-08-19T05:53:12;15.20;99.90
55203;DHT22;41077;52.956;6.796;2022-08-19T05:55:41;15.30;99.90
55203;DHT22;41077;52.956;6.796;2022-08-19T05:58:07;15.40;99.90
55203;DHT22;41077;52.956;6.796;2022-08-19T06:00:34;15.50;99.90
55203;DHT22;41077;52.956;6.796;2022-08-19T06:03:00;15.60;99.90
55203;DHT22;41077;52.956;6.796;2022-08-19T06:05:32;15.70;99.90
55203;DHT22;41077;52.956;6.796;2022-08-19T06:07:58;15.90;99.90
55203;DHT22;41077;52.956;6.796;2022-08-19T06:10:25;16.00;99.90
55203;DHT22;41077;52.956;6.796;2022-08-19T06:12:52;16.10;99.90
55203;DHT22;41077;52.956;6.796;2022-08-19T06:15:17;16.20;99.90
55203;DHT22;41077;52.956;6.796;2022-08-19T06:17:43;16.30;99.90
55203;DHT22;41077;52.956;6.796;2022-08-19T06:20:14;16.40;99.90
55203;DHT22;41077;52.956;6.796;2022-08-19T06:22:42;16.40;99.90
55203;DHT22;41077;52.956;6.796;2022-08-19T06:25:08;16.60;99.90
55203;DHT22;41077;52.956;6.796;2022-08-19T06:27:37;16.70;99.90
55203;DHT22;41077;52.956;6.796;2022-08-19T06:30:04;16.80;99.90
55203;DHT22;41077;52.956;6.796;2022-08-19T06:32:29;16.90;99.90
55203;DHT22;41077;52.956;6.796;2022-08-19T06:34:55;16.90;99.90
55203;DHT22;41077;52.956;6.796;2022-08-19T06:37:21;17.10;99.90
55203;DHT22;41077;52.956;6.796;2022-08-19T06:39:47;17.20;99.90
55203;DHT22;41077;52.956;6.796;2022-08-19T06:42:13;17.20;99.90
55203;DHT22;41077;52.956;6.796;2022-08-19T06:44:43;17.30;99.90
55203;DHT22;41077;52.956;6.796;2022-08-19T06:47:13;17.40;99.90
55203;DHT22;41077;52.956;6.796;2022-08-19T06:49:39;17.50;99.90
55203;DHT22;41077;52.956;6.796;2022-08-19T06:52:05;17.50;99.90
55203;DHT22;41077;52.956;6.796;2022-08-19T06:54:31;17.60;99.90
55203;DHT22;41077;52.956;6.796;2022-08-19T06:56:59;17.70;99.90
55203;DHT22;41077;52.956;6.796;2022-08-19T06:59:28;17.70;99.90
55203;DHT22;41077;52.956;6.796;2022-08-19T07:02:00;17.80;99.90
55203;DHT22;41077;52.956;6.796;2022-08-19T07:04:28;17.80;99.90
55203;DHT22;41077;52.956;6.796;2022-08-19T07:07:02;17.90;99.90
55203;DHT22;41077;52.956;6.796;2022-08-19T07:09:28;18.00;99.90
55203;DHT22;41077;52.956;6.796;2022-08-19T07:11:55;18.10;99.90
55203;DHT22;41077;52.956;6.796;2022-08-19T07:14:23;18.20;99.90
55203;DHT22;41077;52.956;6.796;2022-08-19T07:16:51;18.40;99.90
55203;DHT22;41077;52.956;6.796;2022-08-19T07:19:20;18.50;99.90
55203;DHT22;41077;52.956;6.796;2022-08-19T07:21:48;18.50;99.90
55203;DHT22;41077;52.956;6.796;2022-08-19T07:24:15;18.60;99.90
55203;DHT22;41077;52.956;6.796;2022-08-19T07:26:42;18.80;99.90
55203;DHT22;41077;52.956;6.796;2022-08-19T07:29:08;18.90;99.90
55203;DHT22;41077;52.956;6.796;2022-08-19T07:31:34;19.00;99.90
55203;DHT22;41077;52.956;6.796;2022-08-19T07:34:05;19.10;99.90
55203;DHT22;41077;52.956;6.796;2022-08-19T07:36:33;19.20;99.90
55203;DHT22;41077;52.956;6.796;2022-08-19T07:39:02;19.30;99.90
55203;DHT22;41077;52.956;6.796;2022-08-19T07:41:30;19.40;99.90
55203;DHT22;41077;52.956;6.796;2022-08-19T07:43:58;19.40;99.90
55203;DHT22;41077;52.956;6.796;2022-08-19T07:46:27;19.50;99.90
55203;DHT22;41077;52.956;6.796;2022-08-19T07:48:53;19.70;99.90
55203;DHT22;41077;52.956;6.796;2022-08-19T07:51:20;19.80;99.90
55203;DHT22;41077;52.956;6.796;2022-08-19T07:53:47;19.90;99.90
55203;DHT22;41077;52.956;6.796;2022-08-19T07:56:15;19.90;99.90
55203;DHT22;41077;52.956;6.796;2022-08-19T07:58:43;20.00;99.90
55203;DHT22;41077;52.956;6.796;2022-08-19T08:01:12;20.00;99.90
55203;DHT22;41077;52.956;6.796;2022-08-19T08:03:38;20.10;99.90
55203;DHT22;41077;52.956;6.796;2022-08-19T08:06:23;20.20;99.90
55203;DHT22;41077;52.956;6.796;2022-08-19T08:09:08;20.30;99.90
55203;DHT22;41077;52.956;6.796;2022-08-19T08:11:42;20.40;99.90
55203;DHT22;41077;52.956;6.796;2022-08-19T08:14:19;20.60;99.90
55203;DHT22;41077;52.956;6.796;2022-08-19T08:16:45;20.60;99.90
55203;DHT22;41077;52.956;6.796;2022-08-19T08:19:12;20.70;99.90
55203;DHT22;41077;52.956;6.796;2022-08-19T08:21:42;20.90;99.90
55203;DHT22;41077;52.956;6.796;2022-08-19T08:24:09;20.90;99.90
55203;DHT22;41077;52.956;6.796;2022-08-19T08:26:34;20.90;99.90
55203;DHT22;41077;52.956;6.796;2022-08-19T08:29:00;21.10;99.90
55203;DHT22;41077;52.956;6.796;2022-08-19T08:31:26;21.30;99.90
55203;DHT22;41077;52.956;6.796;2022-08-19T08:33:53;21.30;99.90
55203;DHT22;41077;52.956;6.796;2022-08-19T08:36:19;21.40;99.90
55203;DHT22;41077;52.956;6.796;2022-08-19T08:38:45;21.40;99.90
55203;DHT22;41077;52.956;6.796;2022-08-19T08:42:05;21.40;99.90
55203;DHT22;41077;52.956;6.796;2022-08-19T08:44:28;21.50;99.90
55203;DHT22;41077;52.956;6.796;2022-08-19T08:47:01;21.70;99.90
55203;DHT22;41077;52.956;6.796;2022-08-19T08:49:39;21.70;99.90
55203;DHT22;41077;52.956;6.796;2022-08-19T08:52:25;21.80;99.90
55203;DHT22;41077;52.956;6.796;2022-08-19T08:54:54;21.80;99.90
55203;DHT22;41077;52.956;6.796;2022-08-19T08:57:29;21.90;99.90
55203;DHT22;41077;52.956;6.796;2022-08-19T08:59:57;22.00;99.90
55203;DHT22;41077;52.956;6.796;2022-08-19T09:02:25;22.10;99.90
55203;DHT22;41077;52.956;6.796;2022-08-19T09:04:53;22.20;99.90
55203;DHT22;41077;52.956;6.796;2022-08-19T09:07:26;22.30;99.90
55203;DHT22;41077;52.956;6.796;2022-08-19T09:15:10;22.40;99.90
55203;DHT22;41077;52.956;6.796;2022-08-19T09:17:37;22.50;99.90
55203;DHT22;41077;52.956;6.796;2022-08-19T09:20:06;22.70;99.90
55203;DHT22;41077;52.956;6.796;2022-08-19T09:22:35;22.70;99.90
55203;DHT22;41077;52.956;6.796;2022-08-19T09:25:01;22.80;99.90
55203;DHT22;41077;52.956;6.796;2022-08-19T09:27:28;22.80;99.90
55203;DHT22;41077;52.956;6.796;2022-08-19T09:29:54;22.90;99.90
55203;DHT22;41077;52.956;6.796;2022-08-19T09:32:21;22.90;99.90
55203;DHT22;41077;52.956;6.796;2022-08-19T09:34:48;23.00;99.90
55203;DHT22;41077;52.956;6.796;2022-08-19T09:37:14;23.00;99.90
55203;DHT22;41077;52.956;6.796;2022-08-19T09:39:40;23.10;99.90
55203;DHT22;41077;52.956;6.796;2022-08-19T09:42:07;23.20;99.90
55203;DHT22;41077;52.956;6.796;2022-08-19T09:44:38;23.20;99.90
55203;DHT22;41077;52.956;6.796;2022-08-19T09:47:04;23.30;99.90
55203;DHT22;41077;52.956;6.796;2022-08-19T09:49:30;23.40;99.90
55203;DHT22;41077;52.956;6.796;2022-08-19T09:51:56;23.40;99.90
55203;DHT22;41077;52.956;6.796;2022-08-19T09:54:23;23.50;99.90
55203;DHT22;41077;52.956;6.796;2022-08-19T09:56:49;23.50;99.90
55203;DHT22;41077;52.956;6.796;2022-08-19T09:59:14;23.50;99.90
55203;DHT22;41077;52.956;6.796;2022-08-19T10:01:40;23.50;99.90
55203;DHT22;41077;52.956;6.796;2022-08-19T10:04:06;23.60;99.90
55203;DHT22;41077;52.956;6.796;2022-08-19T10:06:37;23.60;99.90
55203;DHT22;41077;52.956;6.796;2022-08-19T10:09:04;23.60;99.90
55203;DHT22;41077;52.956;6.796;2022-08-19T10:11:33;23.70;99.90
55203;DHT22;41077;52.956;6.796;2022-08-19T10:13:59;23.70;99.90
55203;DHT22;41077;52.956;6.796;2022-08-19T10:16:25;23.70;99.90
55203;DHT22;41077;52.956;6.796;2022-08-19T10:18:52;23.80;99.90
55203;DHT22;41077;52.956;6.796;2022-08-19T10:21:20;23.90;99.90
55203;DHT22;41077;52.956;6.796;2022-08-19T10:23:48;24.00;99.90
55203;DHT22;41077;52.956;6.796;2022-08-19T10:26:18;24.00;99.90
55203;DHT22;41077;52.956;6.796;2022-08-19T10:28:44;24.20;99.90
55203;DHT22;41077;52.956;6.796;2022-08-19T10:31:21;24.40;99.90
55203;DHT22;41077;52.956;6.796;2022-08-19T10:33:48;24.40;99.90
55203;DHT22;41077;52.956;6.796;2022-08-19T10:36:19;24.40;99.90
55203;DHT22;41077;52.956;6.796;2022-08-19T10:38:48;24.60;99.90
55203;DHT22;41077;52.956;6.796;2022-08-19T10:41:23;24.60;99.90
55203;DHT22;41077;52.956;6.796;2022-08-19T10:43:54;24.60;99.90
55203;DHT22;41077;52.956;6.796;2022-08-19T10:46:21;24.60;99.90
55203;DHT22;41077;52.956;6.796;2022-08-19T10:48:47;24.70;99.90
55203;DHT22;41077;52.956;6.796;2022-08-19T10:51:13;24.60;99.90
55203;DHT22;41077;52.956;6.796;2022-08-19T10:53:58;24.60;99.90
55203;DHT22;41077;52.956;6.796;2022-08-19T10:56:25;24.40;99.90
55203;DHT22;41077;52.956;6.796;2022-08-19T10:59:10;24.40;99.90
55203;DHT22;41077;52.956;6.796;2022-08-19T11:01:37;24.30;99.90
55203;DHT22;41077;52.956;6.796;2022-08-19T11:04:04;24.30;99.90
55203;DHT22;41077;52.956;6.796;2022-08-19T11:06:33;24.40;99.90
55203;DHT22;41077;52.956;6.796;2022-08-19T11:08:59;24.60;99.90
55203;DHT22;41077;52.956;6.796;2022-08-19T11:11:25;24.90;99.90
55203;DHT22;41077;52.956;6.796;2022-08-19T11:13:51;25.20;99.90
55203;DHT22;41077;52.956;6.796;2022-08-19T11:16:26;25.50;97.60
55203;DHT22;41077;52.956;6.796;2022-08-19T11:18:57;25.70;98.90
55203;DHT22;41077;52.956;6.796;2022-08-19T11:21:26;26.00;98.00
55203;DHT22;41077;52.956;6.796;2022-08-19T11:23:55;26.10;99.00
55203;DHT22;41077;52.956;6.796;2022-08-19T11:26:22;26.50;98.70
55203;DHT22;41077;52.956;6.796;2022-08-19T11:28:48;26.70;98.00
55203;DHT22;41077;52.956;6.796;2022-08-19T11:31:17;26.90;97.80
55203;DHT22;41077;52.956;6.796;2022-08-19T11:33:44;26.90;96.50
55203;DHT22;41077;52.956;6.796;2022-08-19T11:36:12;26.90;95.30
55203;DHT22;41077;52.956;6.796;2022-08-19T11:38:38;26.70;95.90
55203;DHT22;41077;52.956;6.796;2022-08-19T11:41:06;26.70;94.00
55203;DHT22;41077;52.956;6.796;2022-08-19T11:43:36;26.40;93.60
55203;DHT22;41077;52.956;6.796;2022-08-19T11:46:06;26.40;95.10
55203;DHT22;41077;52.956;6.796;2022-08-19T11:48:33;26.50;95.30
55203;DHT22;41077;52.956;6.796;2022-08-19T11:50:58;26.40;96.70
55203;DHT22;41077;52.956;6.796;2022-08-19T11:53:24;26.20;96.40
55203;DHT22;41077;52.956;6.796;2022-08-19T11:55:53;25.90;96.30
55203;DHT22;41077;52.956;6.796;2022-08-19T11:58:21;25.60;96.50
55203;DHT22;41077;52.956;6.796;2022-08-19T12:00:47;25.40;96.70
55203;DHT22;41077;52.956;6.796;2022-08-19T12:03:13;25.20;97.00
55203;DHT22;41077;52.956;6.796;2022-08-19T12:05:40;25.00;97.90
55203;DHT22;41077;52.956;6.796;2022-08-19T12:08:07;24.70;98.40
55203;DHT22;41077;52.956;6.796;2022-08-19T12:10:33;24.90;98.90
55203;DHT22;41077;52.956;6.796;2022-08-19T12:13:00;25.30;98.50
55203;DHT22;41077;52.956;6.796;2022-08-19T12:15:27;25.70;97.40
55203;DHT22;41077;52.956;6.796;2022-08-19T12:17:56;25.90;96.80
55203;DHT22;41077;52.956;6.796;2022-08-19T12:20:23;25.90;96.40
55203;DHT22;41077;52.956;6.796;2022-08-19T12:22:50;25.60;96.40
55203;DHT22;41077;52.956;6.796;2022-08-19T12:25:16;25.30;97.30
55203;DHT22;41077;52.956;6.796;2022-08-19T12:27:42;25.10;97.90
55203;DHT22;41077;52.956;6.796;2022-08-19T12:30:10;25.30;98.30
55203;DHT22;41077;52.956;6.796;2022-08-19T12:32:37;25.70;97.00
55203;DHT22;41077;52.956;6.796;2022-08-19T12:35:04;26.00;97.10
55203;DHT22;41077;52.956;6.796;2022-08-19T12:37:29;25.90;95.70
55203;DHT22;41077;52.956;6.796;2022-08-19T12:39:57;25.70;95.50
55203;DHT22;41077;52.956;6.796;2022-08-19T12:42:23;25.60;96.30
55203;DHT22;41077;52.956;6.796;2022-08-19T12:44:48;25.40;97.10
55203;DHT22;41077;52.956;6.796;2022-08-19T12:47:14;25.30;97.90
55203;DHT22;41077;52.956;6.796;2022-08-19T12:49:40;25.30;98.20
55203;DHT22;41077;52.956;6.796;2022-08-19T12:52:07;25.30;98.20
55203;DHT22;41077;52.956;6.796;2022-08-19T12:54:34;25.50;97.70
55203;DHT22;41077;52.956;6.796;2022-08-19T12:57:04;25.80;96.10
55203;DHT22;41077;52.956;6.796;2022-08-19T12:59:30;25.80;96.80
55203;DHT22;41077;52.956;6.796;2022-08-19T13:01:55;25.80;96.00
55203;DHT22;41077;52.956;6.796;2022-08-19T13:04:21;25.70;95.90
55203;DHT22;41077;52.956;6.796;2022-08-19T13:06:47;25.70;96.40
55203;DHT22;41077;52.956;6.796;2022-08-19T13:09:13;25.50;94.80
55203;DHT22;41077;52.956;6.796;2022-08-19T13:11:38;25.50;94.20
55203;DHT22;41077;52.956;6.796;2022-08-19T13:14:04;25.30;92.50
55203;DHT22;41077;52.956;6.796;2022-08-19T13:16:30;25.20;92.20
55203;DHT22;41077;52.956;6.796;2022-08-19T13:18:57;25.10;92.70
55203;DHT22;41077;52.956;6.796;2022-08-19T13:21:25;25.10;93.50
55203;DHT22;41077;52.956;6.796;2022-08-19T13:23:51;25.20;94.70
55203;DHT22;41077;52.956;6.796;2022-08-19T13:26:18;25.20;93.70
55203;DHT22;41077;52.956;6.796;2022-08-19T13:28:45;25.30;92.20
55203;DHT22;41077;52.956;6.796;2022-08-19T13:31:32;25.30;91.40
55203;DHT22;41077;52.956;6.796;2022-08-19T13:34:18;25.50;87.20
55203;DHT22;41077;52.956;6.796;2022-08-19T13:36:44;25.50;88.90
55203;DHT22;41077;52.956;6.796;2022-08-19T13:39:10;25.50;86.20
55203;DHT22;41077;52.956;6.796;2022-08-19T13:41:36;25.50;86.10
55203;DHT22;41077;52.956;6.796;2022-08-19T13:44:03;25.60;87.50
55203;DHT22;41077;52.956;6.796;2022-08-19T13:46:29;25.70;85.30
55203;DHT22;41077;52.956;6.796;2022-08-19T13:48:56;25.80;81.00
55203;DHT22;41077;52.956;6.796;2022-08-19T13:51:23;25.90;83.10
55203;DHT22;41077;52.956;6.796;2022-08-19T13:53:48;26.00;83.60
55203;DHT22;41077;52.956;6.796;2022-08-19T13:56:16;25.90;86.30
55203;DHT22;41077;52.956;6.796;2022-08-19T13:58:45;25.80;87.20
55203;DHT22;41077;52.956;6.796;2022-08-19T14:01:11;25.70;88.70
55203;DHT22;41077;52.956;6.796;2022-08-19T14:03:38;25.60;87.70
55203;DHT22;41077;52.956;6.796;2022-08-19T14:06:04;25.50;90.00
55203;DHT22;41077;52.956;6.796;2022-08-19T14:08:29;25.50;90.20
55203;DHT22;41077;52.956;6.796;2022-08-19T14:10:57;25.50;90.40
55203;DHT22;41077;52.956;6.796;2022-08-19T14:13:24;25.40;91.30
55203;DHT22;41077;52.956;6.796;2022-08-19T14:15:50;25.40;92.10
55203;DHT22;41077;52.956;6.796;2022-08-19T14:18:18;25.40;92.30
55203;DHT22;41077;52.956;6.796;2022-08-19T14:20:44;25.40;91.80
55203;DHT22;41077;52.956;6.796;2022-08-19T14:23:10;25.40;93.00
55203;DHT22;41077;52.956;6.796;2022-08-19T14:25:37;25.50;92.50
55203;DHT22;41077;52.956;6.796;2022-08-19T14:28:03;25.60;95.30
55203;DHT22;41077;52.956;6.796;2022-08-19T14:30:31;25.40;96.70
55203;DHT22;41077;52.956;6.796;2022-08-19T14:33:00;25.20;98.90
55203;DHT22;41077;52.956;6.796;2022-08-19T14:35:31;25.00;99.90
55203;DHT22;41077;52.956;6.796;2022-08-19T14:37:59;24.70;99.90
55203;DHT22;41077;52.956;6.796;2022-08-19T14:40:27;24.60;99.90
55203;DHT22;41077;52.956;6.796;2022-08-19T14:42:55;24.50;99.90
55203;DHT22;41077;52.956;6.796;2022-08-19T14:45:25;24.40;99.90
55203;DHT22;41077;52.956;6.796;2022-08-19T14:47:51;24.40;99.90
55203;DHT22;41077;52.956;6.796;2022-08-19T14:50:18;24.30;99.90
55203;DHT22;41077;52.956;6.796;2022-08-19T14:52:47;24.20;99.90
55203;DHT22;41077;52.956;6.796;2022-08-19T14:55:14;24.10;99.90
55203;DHT22;41077;52.956;6.796;2022-08-19T14:57:43;24.00;99.90
55203;DHT22;41077;52.956;6.796;2022-08-19T15:00:09;23.90;99.90
55203;DHT22;41077;52.956;6.796;2022-08-19T15:02:40;23.80;99.90
55203;DHT22;41077;52.956;6.796;2022-08-19T15:05:06;23.70;99.90
55203;DHT22;41077;52.956;6.796;2022-08-19T15:07:32;23.70;99.90
55203;DHT22;41077;52.956;6.796;2022-08-19T15:09:58;23.60;99.90
55203;DHT22;41077;52.956;6.796;2022-08-19T15:12:24;23.60;99.90
55203;DHT22;41077;52.956;6.796;2022-08-19T15:14:50;23.60;99.90
55203;DHT22;41077;52.956;6.796;2022-08-19T15:17:16;23.60;99.90
55203;DHT22;41077;52.956;6.796;2022-08-19T15:19:42;23.60;99.90
55203;DHT22;41077;52.956;6.796;2022-08-19T15:22:08;23.60;99.90
55203;DHT22;41077;52.956;6.796;2022-08-19T15:24:35;23.60;99.90
55203;DHT22;41077;52.956;6.796;2022-08-19T15:27:01;23.60;99.90
55203;DHT22;41077;52.956;6.796;2022-08-19T15:29:27;23.60;99.90
55203;DHT22;41077;52.956;6.796;2022-08-19T15:31:53;23.60;99.90
55203;DHT22;41077;52.956;6.796;2022-08-19T15:34:24;23.70;99.90
55203;DHT22;41077;52.956;6.796;2022-08-19T15:36:51;23.70;99.90
55203;DHT22;41077;52.956;6.796;2022-08-19T15:39:18;23.80;99.90
55203;DHT22;41077;52.956;6.796;2022-08-19T15:41:45;23.90;99.90